Time;durP1;ratioP1;P1;durP2;ratioP2;P2;SDS_P1;SDS_P2;PMS_P1;PMS_P2;Temp;Humidity;BMP_temperature;BMP_pressure;BME280_temperature;BME280_humidity;BME280_pressure;Samples;Min_cycle;Max_cycle;Signal;HPM_P1;HPM_P2
2023/04/08 00:00:05;;;;;;;29.65;12.15;;;10.80;96.60;;;;;;5114178;28;20484;-75
2023/04/08 00:02:31;;;;;;;26.20;11.57;;;10.80;96.60;;;;;;5114037;28;20043;-75
2023/04/08 00:04:56;;;;;;;29.08;10.70;;;10.80;96.60;;;;;;5114001;28;20028;-75
2023/04/08 00:07:22;;;;;;;33.97;12.63;;;10.80;96.60;;;;;;5113861;28;20039;-75
2023/04/08 00:09:48;;;;;;;30.17;11.95;;;10.80;96.70;;;;;;5113889;28;20028;-75
2023/04/08 00:12:14;;;;;;;35.33;13.13;;;10.80;96.70;;;;;;5113884;28;20070;-75
2023/04/08 00:14:40;;;;;;;27.02;11.80;;;10.80;96.70;;;;;;5112857;28;20024;-75
2023/04/08 00:17:06;;;;;;;35.47;12.05;;;10.80;96.70;;;;;;5113805;28;20031;-75
2023/04/08 00:19:32;;;;;;;33.17;12.10;;;10.80;96.80;;;;;;5113764;28;20020;-75
2023/04/08 00:21:58;;;;;;;31.10;12.75;;;10.80;96.70;;;;;;5113727;28;20055;-75
2023/04/08 00:24:24;;;;;;;30.77;12.48;;;10.80;96.70;;;;;;5113846;28;20058;-75
2023/04/08 00:26:50;;;;;;;31.75;12.18;;;10.90;96.70;;;;;;5113566;28;20024;-75
2023/04/08 00:29:16;;;;;;;30.83;12.35;;;10.80;96.70;;;;;;5113647;28;20024;-75
2023/04/08 00:31:42;;;;;;;30.23;12.55;;;10.80;96.70;;;;;;5113585;28;20031;-75
2023/04/08 00:34:07;;;;;;;30.15;11.90;;;10.80;96.70;;;;;;5113501;28;20032;-75
2023/04/08 00:36:35;;;;;;;31.27;12.45;;;10.80;96.70;;;;;;5113490;28;20035;-75
2023/04/08 00:39:00;;;;;;;33.58;12.27;;;10.80;96.70;;;;;;5113344;28;20040;-75
2023/04/08 00:41:26;;;;;;;36.13;13.05;;;10.80;96.70;;;;;;5112616;28;20032;-75
2023/04/08 00:43:53;;;;;;;29.25;11.50;;;10.80;96.70;;;;;;5113465;28;20031;-75
2023/04/08 00:46:18;;;;;;;29.60;13.15;;;10.80;96.80;;;;;;5113382;28;20028;-75
2023/04/08 00:48:44;;;;;;;29.60;12.20;;;10.80;96.80;;;;;;5112525;28;20035;-75
2023/04/08 00:51:10;;;;;;;32.40;14.30;;;10.80;96.80;;;;;;5095562;28;20028;-75
2023/04/08 00:53:35;;;;;;;36.65;14.02;;;10.80;96.80;;;;;;5112377;28;20028;-75
2023/04/08 00:56:01;;;;;;;32.53;13.35;;;10.80;96.80;;;;;;5095477;28;20024;-75
2023/04/08 00:58:28;;;;;;;35.72;12.65;;;10.80;96.80;;;;;;5113319;28;20024;-75
2023/04/08 01:01:02;;;;;;;32.13;13.90;;;10.80;96.80;;;;;;5099440;28;20016;-75
2023/04/08 01:03:55;;;;;;;32.38;12.93;;;10.80;96.80;;;;;;5117484;28;20484;-75
2023/04/08 01:06:41;;;;;;;32.80;13.50;;;10.80;96.80;;;;;;5117419;28;20024;-75
2023/04/08 01:09:09;;;;;;;28.80;11.75;;;10.80;96.80;;;;;;5117398;28;20031;-75
2023/04/08 01:11:38;;;;;;;34.58;13.20;;;10.80;96.80;;;;;;5117325;28;20031;-75
2023/04/08 01:14:08;;;;;;;32.88;12.48;;;10.80;96.80;;;;;;5117277;28;20024;-75
2023/04/08 01:16:37;;;;;;;31.73;12.77;;;10.80;96.90;;;;;;5099551;28;20028;-75
2023/04/08 01:19:05;;;;;;;34.30;12.60;;;10.80;96.90;;;;;;5117283;28;20024;-75
2023/04/08 01:21:30;;;;;;;33.47;13.02;;;10.80;96.90;;;;;;5117110;28;20032;-75
2023/04/08 01:24:14;;;;;;;35.13;12.82;;;10.80;96.90;;;;;;5116053;28;20088;-75
2023/04/08 01:26:40;;;;;;;31.90;12.90;;;10.80;96.90;;;;;;5116956;28;20020;-75
2023/04/08 01:29:07;;;;;;;29.67;12.90;;;10.80;96.80;;;;;;5116947;28;20031;-75
2023/04/08 01:31:35;;;;;;;31.42;11.75;;;10.80;96.80;;;;;;5116911;28;20016;-75
2023/04/08 01:34:03;;;;;;;31.15;13.68;;;10.80;96.80;;;;;;5116793;28;20031;-75
2023/04/08 01:36:31;;;;;;;30.25;12.23;;;10.80;96.80;;;;;;5116790;28;20414;-75
2023/04/08 01:38:59;;;;;;;33.33;12.45;;;10.80;96.70;;;;;;5115529;28;20122;-75
2023/04/08 01:41:26;;;;;;;28.13;12.32;;;10.80;96.70;;;;;;5115694;28;20028;-75
2023/04/08 01:43:53;;;;;;;32.45;13.32;;;10.80;96.70;;;;;;5116686;28;20028;-75
2023/04/08 01:46:20;;;;;;;32.88;12.85;;;10.80;96.70;;;;;;5116537;28;20024;-75
2023/04/08 01:48:47;;;;;;;28.60;12.13;;;10.80;96.60;;;;;;5116596;28;20024;-75
2023/04/08 01:51:14;;;;;;;29.35;12.25;;;10.80;96.60;;;;;;5115596;28;20038;-75
2023/04/08 01:53:40;;;;;;;28.92;12.35;;;10.80;96.60;;;;;;5116448;28;20028;-75
2023/04/08 01:56:12;;;;;;;26.50;11.77;;;10.70;96.60;;;;;;5116447;28;20020;-75
2023/04/08 01:58:46;;;;;;;22.80;11.52;;;10.70;96.50;;;;;;5116452;28;20020;-75
2023/04/08 02:01:16;;;;;;;29.73;11.98;;;10.70;96.50;;;;;;5116383;28;20379;-75
2023/04/08 02:03:44;;;;;;;29.42;12.05;;;10.70;96.50;;;;;;5116247;28;20020;-75
2023/04/08 02:06:10;;;;;;;27.98;12.20;;;10.70;96.50;;;;;;5116165;28;20020;-75
2023/04/08 02:08:35;;;;;;;27.17;11.23;;;10.70;96.50;;;;;;5115180;28;20039;-75
2023/04/08 02:11:02;;;;;;;24.80;10.73;;;10.60;96.40;;;;;;5115290;28;20052;-75
2023/04/08 02:13:32;;;;;;;25.52;11.25;;;10.60;96.30;;;;;;5115080;28;20046;-75
2023/04/08 02:16:15;;;;;;;23.92;10.90;;;10.40;96.10;;;;;;5116051;28;20028;-75
2023/04/08 02:18:44;;;;;;;27.90;12.23;;;10.40;96.10;;;;;;5116060;28;20020;-75
2023/04/08 02:21:15;;;;;;;26.55;11.68;;;10.30;96.20;;;;;;5115960;28;20024;-75
2023/04/08 02:23:44;;;;;;;36.05;12.02;;;10.30;96.40;;;;;;5116052;28;20084;-75
2023/04/08 02:26:15;;;;;;;26.67;12.45;;;10.30;96.40;;;;;;5115784;28;20021;-75
2023/04/08 02:28:41;;;;;;;26.52;10.23;;;10.30;96.40;;;;;;5115818;28;20023;-75
2023/04/08 02:31:14;;;;;;;24.80;11.52;;;10.30;96.50;;;;;;5115801;28;20081;-75
2023/04/08 02:33:42;;;;;;;22.75;10.25;;;10.30;96.60;;;;;;5115715;28;20389;-75
2023/04/08 02:36:09;;;;;;;25.42;10.60;;;10.30;96.60;;;;;;5115725;28;20084;-75
2023/04/08 02:38:35;;;;;;;25.50;10.85;;;10.30;96.50;;;;;;5114415;28;20044;-75
2023/04/08 02:41:01;;;;;;;27.17;11.73;;;10.30;96.50;;;;;;5115566;28;20051;-75
2023/04/08 02:43:30;;;;;;;27.60;10.88;;;10.30;96.50;;;;;;5115659;28;20050;-75
2023/04/08 02:45:57;;;;;;;22.08;10.55;;;10.30;96.50;;;;;;5115415;28;20035;-75
2023/04/08 02:48:23;;;;;;;30.80;11.80;;;10.30;96.50;;;;;;5115405;28;20019;-75
2023/04/08 02:50:49;;;;;;;26.35;11.48;;;10.30;96.60;;;;;;5114356;28;20032;-75
2023/04/08 02:53:14;;;;;;;28.02;11.10;;;10.20;96.50;;;;;;5114464;28;20020;-75
2023/04/08 02:55:40;;;;;;;28.15;12.18;;;10.20;96.50;;;;;;5115318;28;20024;-75
2023/04/08 02:58:06;;;;;;;23.40;10.30;;;10.30;96.60;;;;;;5115222;28;20027;-75
2023/04/08 03:00:31;;;;;;;26.80;10.48;;;10.30;96.60;;;;;;5114455;28;20407;-75
2023/04/08 03:02:57;;;;;;;21.58;10.00;;;10.20;96.50;;;;;;5115107;28;20103;-75
2023/04/08 03:05:25;;;;;;;22.65;9.77;;;10.20;96.40;;;;;;5115222;28;20091;-75
2023/04/08 03:07:51;;;;;;;24.75;10.48;;;10.20;96.30;;;;;;5114965;28;20032;-75
2023/04/08 03:10:17;;;;;;;21.92;10.45;;;10.20;96.40;;;;;;5114046;28;20035;-75
2023/04/08 03:12:42;;;;;;;24.20;10.95;;;10.20;96.40;;;;;;5113912;28;20100;-75
2023/04/08 03:15:08;;;;;;;24.33;11.00;;;10.20;96.50;;;;;;5113962;28;20020;-75
2023/04/08 03:17:34;;;;;;;21.90;9.68;;;10.20;96.40;;;;;;5114889;28;20108;-75
2023/04/08 03:20:03;;;;;;;20.23;8.68;;;10.10;96.30;;;;;;5114860;28;20035;-75
2023/04/08 03:22:29;;;;;;;17.92;7.03;;;10.10;96.10;;;;;;5114807;28;20104;-75
2023/04/08 03:24:55;;;;;;;18.65;7.97;;;10.00;96.10;;;;;;5114873;28;20028;-75
2023/04/08 03:27:20;;;;;;;19.58;8.30;;;10.00;96.10;;;;;;5114566;28;20472;-75
2023/04/08 03:29:46;;;;;;;21.90;9.50;;;9.90;96.20;;;;;;5114624;28;20072;-75
2023/04/08 03:32:12;;;;;;;17.63;8.48;;;9.90;96.20;;;;;;5113595;28;20021;-75
2023/04/08 03:34:38;;;;;;;18.58;8.35;;;9.90;96.20;;;;;;5114466;28;20032;-75
2023/04/08 03:37:03;;;;;;;18.48;8.15;;;9.90;96.10;;;;;;5114481;28;20116;-75
2023/04/08 03:39:30;;;;;;;18.05;8.02;;;9.90;96.10;;;;;;5096322;28;20078;-75
2023/04/08 03:41:56;;;;;;;17.90;8.40;;;9.90;96.00;;;;;;5114421;28;20581;-75
2023/04/08 03:44:21;;;;;;;18.83;8.38;;;9.80;95.80;;;;;;5114379;28;20087;-75
2023/04/08 03:46:47;;;;;;;16.75;8.27;;;9.80;95.90;;;;;;5113260;28;20031;-75
2023/04/08 03:49:13;;;;;;;19.42;8.90;;;9.80;95.80;;;;;;5113257;28;20047;-75
2023/04/08 03:51:38;;;;;;;22.75;10.05;;;9.60;95.90;;;;;;5114248;28;20035;-75
2023/04/08 03:54:04;;;;;;;21.55;9.57;;;9.70;96.00;;;;;;5113350;28;20012;-75
2023/04/08 03:56:30;;;;;;;26.25;11.50;;;9.70;96.10;;;;;;5114159;28;20020;-75
2023/04/08 03:58:55;;;;;;;26.27;11.10;;;9.70;96.20;;;;;;5114093;28;20032;-75
2023/04/08 04:01:21;;;;;;;23.70;11.52;;;9.70;96.20;;;;;;5114028;28;20088;-75
2023/04/08 04:03:46;;;;;;;29.92;12.05;;;9.70;96.20;;;;;;5113998;28;20035;-75
2023/04/08 04:06:12;;;;;;;25.73;10.75;;;9.70;96.20;;;;;;5114007;28;20035;-75
2023/04/08 04:08:37;;;;;;;25.95;11.15;;;9.70;96.30;;;;;;5113941;28;20039;-75
2023/04/08 04:11:03;;;;;;;23.83;10.70;;;9.70;96.30;;;;;;5113902;28;20037;-75
2023/04/08 04:13:29;;;;;;;23.98;10.40;;;9.70;96.20;;;;;;5113988;28;20051;-75
2023/04/08 04:15:56;;;;;;;26.42;11.70;;;9.70;96.20;;;;;;5113852;28;20046;-75
2023/04/08 04:18:22;;;;;;;29.48;12.57;;;9.80;96.40;;;;;;5113816;28;20016;-75
2023/04/08 04:20:47;;;;;;;28.48;12.65;;;9.80;96.40;;;;;;5112752;28;20035;-75
2023/04/08 04:23:13;;;;;;;32.55;12.73;;;9.90;96.50;;;;;;5113731;28;20020;-75
2023/04/08 04:25:43;;;;;;;28.63;11.85;;;9.90;96.60;;;;;;5095795;28;20036;-75
2023/04/08 04:28:08;;;;;;;32.22;12.75;;;9.90;96.60;;;;;;5113591;28;20527;-75
2023/04/08 04:30:38;;;;;;;30.95;12.73;;;10.00;96.60;;;;;;5112621;28;20024;-75
2023/04/08 04:33:05;;;;;;;32.05;13.00;;;10.00;96.70;;;;;;5113557;28;20383;-75
2023/04/08 04:35:31;;;;;;;30.20;12.25;;;10.00;96.70;;;;;;5113172;28;20016;-75
2023/04/08 04:37:56;;;;;;;30.55;13.45;;;10.00;96.70;;;;;;5113552;28;20032;-75
2023/04/08 04:40:22;;;;;;;31.50;13.52;;;10.00;96.70;;;;;;5113348;28;20138;-75
2023/04/08 04:42:47;;;;;;;32.55;14.20;;;10.00;96.70;;;;;;5112567;28;20092;-75
2023/04/08 04:45:13;;;;;;;32.38;13.20;;;10.00;96.70;;;;;;5113462;28;20028;-75
2023/04/08 04:47:39;;;;;;;31.23;13.18;;;10.10;96.80;;;;;;5112496;28;20024;-75
2023/04/08 04:50:05;;;;;;;33.03;13.85;;;10.10;96.80;;;;;;5113398;28;20020;-75
2023/04/08 04:52:31;;;;;;;28.45;12.70;;;10.10;96.80;;;;;;5113447;28;20035;-75
2023/04/08 04:54:57;;;;;;;27.05;12.18;;;10.10;96.80;;;;;;5113389;28;20024;-75
2023/04/08 04:57:23;;;;;;;32.00;13.70;;;10.10;96.80;;;;;;5113406;28;20076;-75
2023/04/08 04:59:49;;;;;;;31.98;13.38;;;10.00;96.80;;;;;;5112357;28;20427;-75
2023/04/08 05:02:15;;;;;;;35.13;14.65;;;10.00;96.80;;;;;;5113359;28;20020;-75
2023/04/08 05:04:40;;;;;;;31.17;13.95;;;10.00;96.80;;;;;;5112384;28;20017;-75
2023/04/08 05:07:06;;;;;;;32.30;14.23;;;10.00;96.80;;;;;;5113192;28;20039;-75
2023/04/08 05:09:32;;;;;;;32.78;13.90;;;10.00;96.90;;;;;;5113223;28;20025;-75
2023/04/08 05:11:57;;;;;;;32.53;13.63;;;10.00;96.90;;;;;;5113349;28;20032;-75
2023/04/08 05:14:23;;;;;;;32.47;13.65;;;10.00;96.90;;;;;;5113188;28;20028;-75
2023/04/08 05:16:49;;;;;;;36.83;14.23;;;10.00;97.00;;;;;;5113175;28;20035;-75
2023/04/08 05:19:14;;;;;;;35.85;14.32;;;10.00;97.00;;;;;;5112128;28;20028;-75
2023/04/08 05:21:40;;;;;;;34.03;14.13;;;10.00;97.00;;;;;;5111994;28;20032;-75
2023/04/08 05:24:06;;;;;;;35.83;14.32;;;9.90;97.10;;;;;;5112135;28;20020;-75
2023/04/08 05:26:31;;;;;;;35.15;14.30;;;9.90;97.20;;;;;;5112130;28;20408;-75
2023/04/08 05:28:57;;;;;;;29.98;12.98;;;10.00;97.20;;;;;;5113098;28;20024;-75
2023/04/08 05:31:23;;;;;;;30.35;13.50;;;10.00;97.20;;;;;;5113056;28;20055;-75
2023/04/08 05:33:49;;;;;;;32.35;13.18;;;10.00;97.10;;;;;;5112934;28;20020;-75
2023/04/08 05:36:15;;;;;;;33.55;13.27;;;10.00;97.10;;;;;;5112999;28;20016;-75
2023/04/08 05:38:44;;;;;;;34.13;14.10;;;10.00;97.10;;;;;;5094845;28;20123;-75
2023/04/08 05:41:09;;;;;;;28.75;12.15;;;10.00;97.10;;;;;;5112250;28;20053;-75
2023/04/08 05:43:35;;;;;;;27.17;12.40;;;10.00;97.00;;;;;;5112931;28;20470;-75
2023/04/08 05:46:08;;;;;;;24.73;11.77;;;10.00;97.00;;;;;;5113455;28;20020;-75
2023/04/08 05:48:34;;;;;;;27.17;10.15;;;10.00;97.00;;;;;;5115578;28;20024;-75
2023/04/08 05:51:00;;;;;;;21.23;10.20;;;9.90;96.90;;;;;;5116560;28;20083;-75
2023/04/08 05:53:26;;;;;;;19.95;10.43;;;9.90;96.90;;;;;;5115478;28;20032;-75
2023/04/08 05:55:51;;;;;;;19.85;9.52;;;9.90;96.90;;;;;;5115454;28;20035;-75
2023/04/08 05:58:17;;;;;;;23.17;10.55;;;9.90;96.90;;;;;;5116561;28;20096;-75
2023/04/08 06:00:43;;;;;;;21.63;9.27;;;9.80;96.90;;;;;;5116346;28;20096;-75
2023/04/08 06:03:08;;;;;;;24.00;10.00;;;9.80;96.90;;;;;;5116314;28;20110;-75
2023/04/08 06:05:34;;;;;;;20.50;9.90;;;9.80;96.90;;;;;;5115232;28;20085;-75
2023/04/08 06:07:59;;;;;;;22.58;10.05;;;9.80;96.90;;;;;;5116294;28;20032;-75
2023/04/08 06:10:25;;;;;;;22.73;9.15;;;9.80;96.80;;;;;;5116187;28;20035;-75
2023/04/08 06:12:51;;;;;;;19.65;9.23;;;9.80;96.80;;;;;;5115167;28;20044;-75
2023/04/08 06:15:16;;;;;;;19.27;9.35;;;9.80;96.80;;;;;;5116069;28;20028;-75
2023/04/08 06:17:42;;;;;;;22.52;9.50;;;9.70;96.80;;;;;;5115175;28;20028;-75
2023/04/08 06:20:08;;;;;;;20.50;9.20;;;9.70;96.70;;;;;;5115991;28;20036;-75
2023/04/08 06:22:35;;;;;;;18.70;9.57;;;9.70;96.70;;;;;;5115098;28;20028;-75
2023/04/08 06:25:01;;;;;;;19.02;8.95;;;9.70;96.70;;;;;;5115926;28;20035;-75
2023/04/08 06:27:26;;;;;;;20.70;8.85;;;9.70;96.70;;;;;;5115957;28;20028;-75
2023/04/08 06:29:54;;;;;;;21.35;9.30;;;9.70;96.70;;;;;;5115773;28;20040;-75
2023/04/08 06:32:20;;;;;;;20.83;8.98;;;9.60;96.70;;;;;;5115830;28;20038;-75
2023/04/08 06:34:46;;;;;;;19.20;8.68;;;9.60;96.70;;;;;;5115685;28;20052;-76
2023/04/08 06:37:12;;;;;;;19.38;8.98;;;9.60;96.70;;;;;;5115772;28;20023;-75
2023/04/08 06:39:37;;;;;;;20.55;9.43;;;9.60;96.70;;;;;;5114227;28;20060;-76
2023/04/08 06:42:03;;;;;;;15.13;8.10;;;9.60;96.60;;;;;;5114645;28;20054;-75
2023/04/08 06:44:28;;;;;;;20.17;9.02;;;9.60;96.70;;;;;;5114455;28;20032;-74
2023/04/08 06:46:54;;;;;;;21.27;8.55;;;9.60;96.70;;;;;;5115455;28;20080;-75
2023/04/08 06:49:20;;;;;;;22.42;9.00;;;9.60;96.60;;;;;;5115411;28;20020;-75
2023/04/08 06:51:46;;;;;;;19.15;9.00;;;9.50;96.60;;;;;;5115390;28;20043;-75
2023/04/08 06:54:11;;;;;;;20.42;8.70;;;9.60;96.70;;;;;;5114276;28;20032;-75
2023/04/08 06:56:37;;;;;;;17.10;7.82;;;9.60;96.70;;;;;;5113910;28;20087;-75
2023/04/08 06:59:03;;;;;;;17.00;8.70;;;9.60;96.70;;;;;;5115227;28;20035;-75
2023/04/08 07:01:30;;;;;;;16.00;8.18;;;9.60;96.60;;;;;;5114289;28;20111;-75
2023/04/08 07:03:56;;;;;;;15.50;7.95;;;9.60;96.50;;;;;;5115160;28;20024;-76
2023/04/08 07:06:22;;;;;;;16.58;8.52;;;9.50;96.40;;;;;;5115052;28;20044;-77
2023/04/08 07:08:47;;;;;;;16.02;8.60;;;9.50;96.40;;;;;;5114341;28;20089;-76
2023/04/08 07:11:13;;;;;;;19.90;8.05;;;9.50;96.40;;;;;;5114986;28;20028;-76
2023/04/08 07:13:39;;;;;;;15.57;8.25;;;9.50;96.40;;;;;;5113918;28;20020;-76
2023/04/08 07:16:05;;;;;;;14.48;7.97;;;9.50;96.20;;;;;;5114945;28;20028;-75
2023/04/08 07:18:31;;;;;;;15.15;8.02;;;9.50;96.30;;;;;;5113976;28;20472;-75
2023/04/08 07:20:57;;;;;;;16.10;7.95;;;9.50;96.30;;;;;;5114860;28;20031;-75
2023/04/08 07:23:23;;;;;;;15.93;8.45;;;9.50;96.30;;;;;;5114769;28;20028;-77
2023/04/08 07:25:48;;;;;;;18.00;8.32;;;9.50;96.20;;;;;;5113760;28;20052;-76
2023/04/08 07:28:14;;;;;;;16.65;8.65;;;9.50;96.20;;;;;;5114568;28;20036;-76
2023/04/08 07:30:40;;;;;;;16.20;8.40;;;9.50;96.20;;;;;;5113783;28;20042;-76
2023/04/08 07:33:05;;;;;;;18.02;10.02;;;9.50;96.20;;;;;;5096671;28;20032;-75
2023/04/08 07:35:32;;;;;;;19.48;9.75;;;9.50;96.20;;;;;;5113583;28;20016;-77
2023/04/08 07:37:58;;;;;;;18.80;10.40;;;9.50;96.30;;;;;;5114557;28;20016;-76
2023/04/08 07:40:23;;;;;;;19.27;9.65;;;9.50;96.20;;;;;;5113398;28;20055;-76
2023/04/08 07:42:49;;;;;;;18.90;9.73;;;9.50;96.20;;;;;;5096458;28;20054;-76
2023/04/08 07:45:14;;;;;;;18.35;9.52;;;9.50;96.20;;;;;;5113307;28;20024;-76
2023/04/08 07:47:40;;;;;;;20.65;9.80;;;9.50;96.20;;;;;;5114246;28;20024;-76
2023/04/08 07:50:06;;;;;;;18.77;9.82;;;9.50;96.10;;;;;;5113317;28;20020;-76
2023/04/08 07:52:33;;;;;;;15.27;8.73;;;9.50;96.10;;;;;;5114229;28;20042;-75
2023/04/08 07:54:59;;;;;;;17.85;9.63;;;9.50;96.10;;;;;;5114207;28;20058;-75
2023/04/08 07:57:25;;;;;;;17.20;9.43;;;9.60;96.10;;;;;;5113097;28;20020;-75
2023/04/08 07:59:51;;;;;;;20.75;10.43;;;9.60;96.00;;;;;;5113129;28;20024;-75
2023/04/08 08:02:16;;;;;;;18.05;9.90;;;9.60;96.00;;;;;;5113919;28;20074;-75
2023/04/08 08:04:42;;;;;;;20.90;10.00;;;9.50;95.80;;;;;;5114036;28;20032;-75
2023/04/08 08:07:07;;;;;;;21.05;10.02;;;9.60;95.90;;;;;;5113748;28;20028;-75
2023/04/08 08:09:33;;;;;;;18.95;10.30;;;9.60;95.80;;;;;;5113216;28;20074;-75
2023/04/08 08:11:59;;;;;;;22.08;10.60;;;9.60;95.80;;;;;;5113825;28;20072;-75
2023/04/08 08:14:25;;;;;;;25.30;11.75;;;9.60;95.80;;;;;;5113854;28;20488;-75
2023/04/08 08:16:52;;;;;;;21.77;10.73;;;9.60;95.80;;;;;;5113758;28;20023;-75
2023/04/08 08:19:19;;;;;;;22.33;11.13;;;9.60;95.80;;;;;;5095975;28;20058;-75
2023/04/08 08:21:45;;;;;;;20.52;10.60;;;9.60;95.70;;;;;;5112917;28;20024;-75
2023/04/08 08:24:10;;;;;;;22.75;11.30;;;9.60;95.80;;;;;;5113723;28;20044;-75
2023/04/08 08:26:36;;;;;;;20.80;11.48;;;9.70;95.80;;;;;;5112657;28;20080;-75
2023/04/08 08:29:02;;;;;;;22.17;11.85;;;9.70;95.80;;;;;;5112588;28;20017;-75
2023/04/08 08:31:28;;;;;;;22.67;11.55;;;9.70;95.70;;;;;;5113622;28;20062;-75
2023/04/08 08:33:53;;;;;;;24.52;11.80;;;9.70;95.70;;;;;;5113502;28;20032;-75
2023/04/08 08:36:19;;;;;;;22.40;11.73;;;9.80;95.70;;;;;;5113687;28;20024;-75
2023/04/08 08:38:46;;;;;;;22.33;11.55;;;9.80;95.60;;;;;;5113377;28;20056;-76
2023/04/08 08:41:11;;;;;;;25.58;13.05;;;9.80;95.60;;;;;;5095855;28;20028;-75
2023/04/08 08:43:37;;;;;;;25.40;12.88;;;9.80;95.50;;;;;;5113426;28;20095;-75
2023/04/08 08:46:03;;;;;;;24.52;12.52;;;9.80;95.50;;;;;;5112415;28;20468;-75
2023/04/08 08:48:31;;;;;;;25.25;13.68;;;9.80;95.40;;;;;;5113338;28;20054;-75
2023/04/08 08:50:56;;;;;;;24.27;13.52;;;9.80;95.50;;;;;;5113471;28;20388;-75
2023/04/08 08:53:29;;;;;;;28.27;13.75;;;9.80;95.60;;;;;;5112333;28;20049;-75
2023/04/08 08:55:54;;;;;;;23.05;12.75;;;9.90;95.60;;;;;;5113511;28;20024;-75
2023/04/08 08:58:20;;;;;;;25.90;13.27;;;9.90;95.50;;;;;;5113296;28;20094;-75
2023/04/08 09:00:46;;;;;;;24.98;13.45;;;9.90;95.50;;;;;;5112409;28;20025;-75
2023/04/08 09:03:23;;;;;;;25.25;13.35;;;9.90;95.40;;;;;;5112313;28;20393;-75
2023/04/08 09:05:51;;;;;;;28.48;14.43;;;9.90;95.40;;;;;;5113297;28;20028;-75
2023/04/08 09:08:27;;;;;;;27.05;14.50;;;9.80;95.50;;;;;;5113152;28;20546;-75
2023/04/08 09:10:54;;;;;;;28.02;14.35;;;9.90;95.70;;;;;;5113255;28;20023;-76
2023/04/08 09:13:22;;;;;;;26.33;13.07;;;9.90;95.70;;;;;;5113185;28;20024;-76
2023/04/08 09:16:09;;;;;;;25.92;14.48;;;9.90;95.70;;;;;;5113163;28;20023;-75
2023/04/08 09:18:39;;;;;;;24.45;12.88;;;10.00;95.70;;;;;;5113108;28;20091;-75
2023/04/08 09:21:06;;;;;;;28.65;14.75;;;10.00;95.70;;;;;;5114613;28;20031;-75
2023/04/08 09:23:46;;;;;;;29.50;14.65;;;10.10;95.60;;;;;;5116196;28;20051;-75
2023/04/08 09:26:23;;;;;;;30.63;14.93;;;10.20;95.60;;;;;;5116993;28;20020;-75
2023/04/08 09:29:06;;;;;;;30.13;15.65;;;10.20;95.60;;;;;;5117117;28;20031;-75
2023/04/08 09:31:41;;;;;;;30.17;15.35;;;10.30;95.40;;;;;;5115969;28;20024;-75
2023/04/08 09:34:15;;;;;;;29.83;15.15;;;10.20;94.80;;;;;;5116001;28;20024;-75
2023/04/08 09:36:43;;;;;;;32.30;16.15;;;10.10;95.20;;;;;;5116874;28;20012;-75
2023/04/08 09:39:09;;;;;;;31.05;16.40;;;10.20;95.50;;;;;;5116439;28;20436;-75
2023/04/08 09:41:36;;;;;;;30.92;16.15;;;10.30;95.60;;;;;;5116751;28;20028;-75
2023/04/08 09:44:05;;;;;;;29.00;15.15;;;10.40;95.60;;;;;;5116685;28;20028;-75
2023/04/08 09:46:45;;;;;;;31.77;16.27;;;10.50;95.30;;;;;;5116607;28;20120;-75
2023/04/08 09:49:22;;;;;;;30.88;16.77;;;10.70;95.40;;;;;;5115464;28;20028;-75
2023/04/08 09:52:11;;;;;;;32.30;16.92;;;10.70;95.10;;;;;;5116650;28;20024;-75
2023/04/08 09:54:54;;;;;;;32.10;15.63;;;10.80;94.90;;;;;;5116660;28;20094;-75
2023/04/08 09:57:45;;;;;;;30.05;16.23;;;10.90;94.90;;;;;;5116518;28;20016;-75
2023/04/08 10:00:15;;;;;;;33.05;17.13;;;11.00;94.90;;;;;;5116344;28;20054;-75
2023/04/08 10:03:01;;;;;;;32.30;17.00;;;11.10;94.40;;;;;;5115320;28;20016;-75
2023/04/08 10:05:26;;;;;;;31.65;17.40;;;11.00;93.40;;;;;;5115803;28;20040;-75
2023/04/08 10:07:54;;;;;;;28.48;16.45;;;10.90;94.00;;;;;;5116210;28;20059;-75
2023/04/08 10:10:21;;;;;;;29.80;17.10;;;11.00;93.90;;;;;;5116168;28;20025;-75
2023/04/08 10:12:47;;;;;;;33.55;17.70;;;11.10;94.20;;;;;;5116162;28;20016;-75
2023/04/08 10:15:27;;;;;;;29.42;17.08;;;11.20;93.80;;;;;;5116046;28;20077;-74
2023/04/08 10:17:54;;;;;;;32.67;17.35;;;11.30;94.10;;;;;;5116025;28;20051;-74
2023/04/08 10:20:34;;;;;;;34.42;18.52;;;11.40;94.20;;;;;;5115939;28;20024;-74
2023/04/08 10:23:12;;;;;;;31.55;18.02;;;11.60;94.20;;;;;;5114993;28;20024;-75
2023/04/08 10:25:40;;;;;;;30.20;17.25;;;11.80;94.20;;;;;;5114966;28;20092;-75
2023/04/08 10:28:17;;;;;;;31.60;16.80;;;12.10;94.00;;;;;;5115802;28;20028;-75
2023/04/08 10:30:50;;;;;;;28.98;16.58;;;12.30;93.70;;;;;;5114722;28;20036;-75
2023/04/08 10:33:15;;;;;;;;;;;12.50;93.50;;;;;;5115446;28;20050;-75
2023/04/08 10:35:54;;;;;;;25.50;15.45;;;12.60;93.30;;;;;;5115752;28;19967;-75
2023/04/08 10:38:20;;;;;;;28.45;15.45;;;12.80;93.20;;;;;;5115864;28;20464;-75
2023/04/08 10:40:47;;;;;;;28.48;15.82;;;12.90;92.80;;;;;;5115435;28;20048;-75
2023/04/08 10:43:14;;;;;;;26.75;16.00;;;13.00;92.30;;;;;;5114733;28;20556;-75
2023/04/08 10:45:42;;;;;;;26.75;16.08;;;13.10;92.30;;;;;;5114421;28;20118;-75
2023/04/08 10:48:16;;;;;;;26.60;16.17;;;13.20;92.10;;;;;;5115541;28;20027;-75
2023/04/08 10:50:43;;;;;;;29.05;16.25;;;13.30;92.30;;;;;;5114547;28;20024;-75
2023/04/08 10:53:10;;;;;;;25.98;16.25;;;13.40;91.90;;;;;;5114540;28;20047;-75
2023/04/08 10:55:35;;;;;;;24.73;15.88;;;13.50;92.30;;;;;;5114338;28;20050;-75
2023/04/08 10:58:08;;;;;;;23.70;15.32;;;13.60;92.30;;;;;;5115290;28;20032;-75
2023/04/08 11:00:37;;;;;;;26.88;15.77;;;13.80;91.80;;;;;;5115279;28;20035;-75
2023/04/08 11:03:07;;;;;;;23.55;14.95;;;13.90;91.40;;;;;;5115362;28;20050;-75
2023/04/08 11:05:33;;;;;;;25.58;15.23;;;14.00;91.40;;;;;;5114216;28;20545;-75
2023/04/08 11:08:00;;;;;;;24.55;14.95;;;14.00;90.90;;;;;;5114110;28;20028;-75
2023/04/08 11:10:26;;;;;;;23.95;15.40;;;14.10;90.80;;;;;;5115053;28;20043;-75
2023/04/08 11:12:55;;;;;;;23.52;15.23;;;14.20;90.40;;;;;;5115001;28;20020;-75
2023/04/08 11:15:23;;;;;;;22.00;14.60;;;14.20;90.50;;;;;;5114976;28;20157;-75
2023/04/08 11:17:49;;;;;;;24.27;14.95;;;14.30;90.30;;;;;;5114928;28;20158;-75
2023/04/08 11:20:15;;;;;;;23.08;14.27;;;14.40;90.00;;;;;;5114771;28;20030;-75
2023/04/08 11:22:42;;;;;;;22.73;14.60;;;14.40;89.60;;;;;;5114862;28;20488;-75
2023/04/08 11:25:09;;;;;;;23.25;14.18;;;14.50;89.50;;;;;;5114689;28;20020;-75
2023/04/08 11:27:35;;;;;;;24.10;14.00;;;14.40;86.60;;;;;;5114818;28;20048;-75
2023/04/08 11:30:02;;;;;;;22.88;14.18;;;14.40;86.80;;;;;;5114634;28;20035;-74
2023/04/08 11:32:28;;;;;;;20.95;13.45;;;14.50;85.60;;;;;;5113731;28;20020;-75
2023/04/08 11:34:54;;;;;;;22.98;14.35;;;14.50;86.90;;;;;;5113520;28;20024;-74
2023/04/08 11:37:21;;;;;;;25.38;14.63;;;14.70;87.40;;;;;;5114560;28;20024;-75
2023/04/08 11:39:46;;;;;;;23.55;13.20;;;14.80;86.60;;;;;;5114330;28;20059;-75
2023/04/08 11:42:32;;;;;;;18.90;13.48;;;14.80;84.10;;;;;;5114434;28;20039;-75
2023/04/08 11:44:57;;;;;;;21.13;12.85;;;15.00;83.30;;;;;;5113438;28;20024;-75
2023/04/08 11:47:33;;;;;;;19.20;12.05;;;14.90;81.00;;;;;;5114257;28;20050;-75
2023/04/08 11:50:00;;;;;;;17.83;12.27;;;14.90;82.80;;;;;;5114274;28;20031;-74
2023/04/08 11:52:48;;;;;;;20.30;12.25;;;15.00;82.20;;;;;;5114298;28;20024;-75
2023/04/08 11:55:31;;;;;;;20.90;13.15;;;15.00;81.30;;;;;;5113068;28;20027;-74
2023/04/08 11:58:03;;;;;;;22.05;12.13;;;15.00;80.60;;;;;;5114197;28;20121;-74
2023/04/08 12:00:30;;;;;;;16.73;11.37;;;14.90;80.50;;;;;;5113206;28;20020;-74
2023/04/08 12:02:55;;;;;;;17.98;11.05;;;14.90;80.90;;;;;;5113096;28;20020;-75
2023/04/08 12:05:21;;;;;;;18.80;11.15;;;14.90;80.50;;;;;;5112929;28;20049;-74
2023/04/08 12:07:47;;;;;;;16.17;10.85;;;14.80;78.40;;;;;;5096132;28;20024;-75
2023/04/08 12:10:13;;;;;;;16.80;10.65;;;14.80;77.20;;;;;;5113948;28;20431;-74
2023/04/08 12:12:39;;;;;;;18.80;10.90;;;14.80;79.10;;;;;;5113924;28;20027;-75
2023/04/08 12:15:06;;;;;;;15.50;9.77;;;14.80;79.30;;;;;;5113823;28;20035;-75
2023/04/08 12:17:32;;;;;;;16.05;9.18;;;14.70;76.70;;;;;;5113882;28;20027;-74
2023/04/08 12:19:58;;;;;;;16.20;9.35;;;14.60;77.80;;;;;;5112722;28;20028;-75
2023/04/08 12:22:24;;;;;;;16.42;9.52;;;14.60;78.40;;;;;;5113812;28;20035;-75
2023/04/08 12:24:50;;;;;;;13.95;8.82;;;14.50;77.30;;;;;;5113696;28;20024;-75
2023/04/08 12:27:15;;;;;;;14.93;8.73;;;14.50;77.30;;;;;;5112704;28;20032;-75
2023/04/08 12:29:42;;;;;;;13.68;8.57;;;14.50;77.70;;;;;;5112552;28;20073;-75
2023/04/08 12:32:08;;;;;;;13.52;8.43;;;14.40;76.80;;;;;;5113714;28;20024;-74
2023/04/08 12:34:33;;;;;;;14.55;8.95;;;14.40;77.00;;;;;;5112454;28;20096;-75